Time;durP1;ratioP1;P1;durP2;ratioP2;P2;SDS_P1;SDS_P2;PMS_P1;PMS_P2;Temp;Humidity;BMP_temperature;BMP_pressure;BME280_temperature;BME280_humidity;BME280_pressure;Samples;Min_cycle;Max_cycle;Signal;HPM_P1;HPM_P2
2021/01/07 00:02:13;;;;;;;15.20;8.87;;;-0.40;99.90;;;;;;5024046;28;20267;-64
2021/01/07 00:04:39;;;;;;;18.70;9.20;;;-0.40;99.90;;;;;;5023071;28;20559;-63
2021/01/07 00:07:05;;;;;;;16.20;8.93;;;-0.40;99.90;;;;;;5019016;28;20472;-63
2021/01/07 00:09:34;;;;;;;15.73;8.37;;;-0.40;99.90;;;;;;5021604;28;20211;-62
2021/01/07 00:12:02;;;;;;;17.47;9.53;;;-0.40;99.90;;;;;;5024056;28;20979;-63
2021/01/07 00:14:28;;;;;;;16.57;9.00;;;-0.40;99.90;;;;;;5023344;28;20816;-62
2021/01/07 00:16:54;;;;;;;16.50;9.17;;;-0.40;99.90;;;;;;5021928;28;20469;-63
2021/01/07 00:19:20;;;;;;;20.07;9.00;;;-0.40;99.90;;;;;;5024002;28;21125;-62
2021/01/07 00:21:45;;;;;;;19.63;9.57;;;-0.40;99.90;;;;;;5025845;28;20669;-62
2021/01/07 00:24:11;;;;;;;13.87;8.87;;;-0.40;99.90;;;;;;5023259;28;20624;-64
2021/01/07 00:26:37;;;;;;;15.47;8.10;;;-0.40;99.90;;;;;;5019766;28;20197;-63
2021/01/07 00:29:03;;;;;;;15.97;9.00;;;-0.40;99.90;;;;;;5021013;28;20185;-65
2021/01/07 00:31:29;;;;;;;14.83;8.47;;;-0.40;99.90;;;;;;5015785;28;20233;-62
2021/01/07 00:33:56;;;;;;;17.87;9.00;;;-0.40;99.90;;;;;;5024984;28;20844;-62
2021/01/07 00:36:21;;;;;;;15.70;8.93;;;-0.40;99.90;;;;;;5019290;28;20880;-63
2021/01/07 00:38:50;;;;;;;19.20;8.80;;;-0.40;99.90;;;;;;5018511;28;20463;-64
2021/01/07 00:41:19;;;;;;;17.30;9.70;;;-0.40;99.90;;;;;;5021473;28;20230;-62
2021/01/07 00:43:49;;;;;;;14.80;8.70;;;-0.40;99.90;;;;;;5024462;28;20455;-63
2021/01/07 00:46:18;;;;;;;18.13;9.50;;;-0.40;99.90;;;;;;5027406;28;20527;-63
2021/01/07 00:48:46;;;;;;;15.60;9.40;;;-0.40;99.90;;;;;;5019794;28;20511;-62
2021/01/07 00:51:12;;;;;;;14.30;8.80;;;-0.40;99.90;;;;;;5022296;28;20440;-62
2021/01/07 00:53:41;;;;;;;18.07;8.80;;;-0.40;99.90;;;;;;5022250;28;20458;-62
2021/01/07 00:56:06;;;;;;;15.17;8.60;;;-0.40;99.90;;;;;;5021691;28;20232;-63
2021/01/07 00:58:35;;;;;;;18.03;9.73;;;-0.40;99.90;;;;;;5014948;28;20442;-62
2021/01/07 01:01:02;;;;;;;16.67;8.37;;;-0.50;99.90;;;;;;5019742;28;20460;-63
2021/01/07 01:03:27;;;;;;;15.97;8.23;;;-0.50;99.90;;;;;;5023950;28;20948;-64
2021/01/07 01:06:02;;;;;;;15.30;9.03;;;-0.50;99.90;;;;;;5017646;28;20451;-63
2021/01/07 01:08:28;;;;;;;16.83;9.13;;;-0.50;99.90;;;;;;5020334;28;20457;-62
2021/01/07 01:10:53;;;;;;;23.80;9.80;;;-0.50;99.90;;;;;;5019963;28;20449;-63
2021/01/07 01:13:28;;;;;;;16.00;8.50;;;-0.50;99.90;;;;;;5021034;28;21764;-62
2021/01/07 01:15:54;;;;;;;18.13;8.53;;;-0.50;99.90;;;;;;5017015;28;20741;-64
2021/01/07 01:18:22;;;;;;;17.07;9.27;;;-0.50;99.90;;;;;;5017423;28;21163;-64
2021/01/07 01:20:50;;;;;;;16.13;9.03;;;-0.40;99.90;;;;;;5019774;28;20470;-62
2021/01/07 01:23:16;;;;;;;18.93;9.57;;;-0.50;99.90;;;;;;5015596;28;20431;-63
2021/01/07 01:25:42;;;;;;;19.50;10.13;;;-0.50;99.90;;;;;;5019099;28;21086;-64
2021/01/07 01:28:10;;;;;;;15.50;8.67;;;-0.50;99.90;;;;;;5019998;28;20453;-63
2021/01/07 01:30:35;;;;;;;19.13;9.50;;;-0.50;99.90;;;;;;5017615;28;20185;-62
2021/01/07 01:33:01;;;;;;;21.33;10.37;;;-0.50;99.90;;;;;;5030188;28;20517;-62
2021/01/07 01:35:27;;;;;;;16.50;8.97;;;-0.50;99.90;;;;;;5024900;28;20236;-62
2021/01/07 01:37:58;;;;;;;17.37;9.20;;;-0.50;99.90;;;;;;5027681;28;20487;-62
2021/01/07 01:40:24;;;;;;;17.00;10.20;;;-0.50;99.90;;;;;;5030668;28;20193;-62
2021/01/07 01:42:50;;;;;;;22.10;10.40;;;-0.50;99.90;;;;;;5032540;28;20934;-62
2021/01/07 01:45:15;;;;;;;21.67;10.17;;;-0.50;99.90;;;;;;5032227;28;20215;-63
2021/01/07 01:47:43;;;;;;;21.40;9.83;;;-0.50;99.90;;;;;;5029067;28;20178;-62
2021/01/07 01:50:10;;;;;;;19.30;9.50;;;-0.50;99.90;;;;;;5035393;28;20189;-62
2021/01/07 01:52:36;;;;;;;23.10;10.30;;;-0.50;99.90;;;;;;5033262;28;20443;-59
2021/01/07 01:55:03;;;;;;;21.33;10.57;;;-0.50;99.90;;;;;;5026533;28;20443;-62
2021/01/07 01:57:31;;;;;;;26.00;10.63;;;-0.50;99.90;;;;;;5019457;28;20577;-62
2021/01/07 01:59:57;;;;;;;20.90;9.60;;;-0.50;99.90;;;;;;5023526;28;20460;-62
2021/01/07 02:02:24;;;;;;;19.97;11.50;;;-0.50;99.90;;;;;;5030350;28;20426;-62
2021/01/07 02:04:49;;;;;;;22.83;11.70;;;-0.50;99.90;;;;;;5026373;28;20190;-63
2021/01/07 02:07:20;;;;;;;23.10;11.20;;;-0.50;99.90;;;;;;5026385;28;20451;-64
2021/01/07 02:09:47;;;;;;;18.77;9.73;;;-0.50;99.90;;;;;;5029254;28;20197;-62
2021/01/07 02:12:13;;;;;;;23.83;10.43;;;-0.50;99.90;;;;;;5024115;28;20491;-63
2021/01/07 02:14:44;;;;;;;24.60;12.13;;;-0.60;99.90;;;;;;5027362;28;20810;-62
2021/01/07 02:17:11;;;;;;;23.00;10.40;;;-0.60;99.90;;;;;;5031608;28;20490;-62
2021/01/07 02:19:38;;;;;;;19.50;10.37;;;-0.60;99.90;;;;;;5030324;28;20455;-63
2021/01/07 02:22:04;;;;;;;25.80;11.93;;;-0.60;99.90;;;;;;5029795;28;20465;-63
2021/01/07 02:24:30;;;;;;;23.57;10.13;;;-0.60;99.90;;;;;;5029757;28;20892;-63
2021/01/07 02:27:09;;;;;;;20.83;10.30;;;-0.60;99.90;;;;;;5028646;28;20448;-63
2021/01/07 02:29:35;;;;;;;23.47;10.90;;;-0.60;99.90;;;;;;5032214;28;20427;-62
2021/01/07 02:32:04;;;;;;;19.00;9.97;;;-0.50;99.90;;;;;;5028827;28;20458;-63
2021/01/07 02:34:30;;;;;;;22.60;10.60;;;-0.50;99.90;;;;;;5032541;28;20992;-62
2021/01/07 02:36:56;;;;;;;25.67;10.87;;;-0.50;99.90;;;;;;5031164;28;20446;-62
2021/01/07 02:39:24;;;;;;;26.57;11.20;;;-0.50;99.90;;;;;;5030525;28;20219;-63
2021/01/07 02:41:59;;;;;;;20.63;10.43;;;-0.50;99.90;;;;;;5029538;28;20686;-62
2021/01/07 02:44:31;;;;;;;27.37;12.00;;;-0.50;99.90;;;;;;5028680;28;20459;-64
2021/01/07 02:46:57;;;;;;;23.70;12.63;;;-0.50;99.90;;;;;;5033063;28;20460;-63
2021/01/07 02:49:23;;;;;;;25.30;12.60;;;-0.50;99.90;;;;;;5026526;28;20193;-63
2021/01/07 02:51:49;;;;;;;24.77;12.07;;;-0.50;99.90;;;;;;5026172;28;20210;-63
2021/01/07 02:54:20;;;;;;;27.30;13.60;;;-0.60;99.90;;;;;;5030600;28;20930;-62
2021/01/07 02:56:46;;;;;;;26.50;11.40;;;-0.60;99.90;;;;;;5027703;28;20244;-63
2021/01/07 02:59:12;;;;;;;28.30;12.40;;;-0.60;99.90;;;;;;5033637;28;20426;-63
2021/01/07 03:01:38;;;;;;;26.87;11.90;;;-0.60;99.90;;;;;;5030661;28;20785;-62
2021/01/07 03:04:04;;;;;;;28.23;13.03;;;-0.60;99.90;;;;;;5033816;28;20179;-64
2021/01/07 03:06:33;;;;;;;30.60;13.37;;;-0.60;99.90;;;;;;5026718;28;20469;-64
2021/01/07 03:08:58;;;;;;;27.07;13.13;;;-0.70;99.90;;;;;;5030653;28;20197;-64
2021/01/07 03:11:27;;;;;;;28.37;12.33;;;-0.70;99.90;;;;;;5013419;28;20481;-65
2021/01/07 03:13:52;;;;;;;34.97;11.37;;;-0.70;99.90;;;;;;5029856;28;20195;-62
2021/01/07 03:16:21;;;;;;;25.03;12.03;;;-0.60;99.90;;;;;;5024764;28;20449;-64
2021/01/07 03:18:47;;;;;;;32.47;13.63;;;-0.60;99.90;;;;;;5031835;28;20184;-63
2021/01/07 03:21:21;;;;;;;27.90;12.93;;;-0.60;99.90;;;;;;5031334;28;20459;-65
2021/01/07 03:23:47;;;;;;;27.87;12.30;;;-0.60;99.90;;;;;;5018203;28;20184;-63
2021/01/07 03:26:12;;;;;;;32.07;13.07;;;-0.60;99.90;;;;;;5026392;28;20466;-65
2021/01/07 03:28:42;;;;;;;28.23;13.00;;;-0.60;99.90;;;;;;5016257;28;20181;-64
2021/01/07 03:31:09;;;;;;;29.80;12.60;;;-0.60;99.90;;;;;;5021020;28;20429;-63
2021/01/07 03:33:35;;;;;;;27.80;12.57;;;-0.60;99.90;;;;;;5025285;28;20424;-62
2021/01/07 03:36:01;;;;;;;31.63;13.27;;;-0.60;99.90;;;;;;5028748;28;20436;-63
2021/01/07 03:38:27;;;;;;;25.03;11.40;;;-0.60;99.90;;;;;;5037373;28;20520;-63
2021/01/07 03:40:53;;;;;;;33.27;13.33;;;-0.60;99.90;;;;;;5026192;28;20563;-63
2021/01/07 03:43:19;;;;;;;30.00;13.97;;;-0.70;99.90;;;;;;5032757;28;20446;-63
2021/01/07 03:45:45;;;;;;;27.67;13.07;;;-0.60;99.90;;;;;;5032492;28;20933;-64
2021/01/07 03:48:13;;;;;;;27.40;13.17;;;-0.60;99.90;;;;;;5008912;28;20189;-62
2021/01/07 03:50:39;;;;;;;29.80;14.00;;;-0.60;99.90;;;;;;5030766;28;20674;-63
2021/01/07 03:53:08;;;;;;;33.60;13.47;;;-0.60;99.90;;;;;;5029310;28;20497;-62
2021/01/07 03:55:34;;;;;;;31.33;14.17;;;-0.70;99.90;;;;;;5029862;28;20208;-63
2021/01/07 03:58:02;;;;;;;29.37;13.20;;;-0.70;99.90;;;;;;5017678;28;20459;-63
2021/01/07 04:00:28;;;;;;;25.43;11.80;;;-0.70;99.90;;;;;;5032099;28;20457;-62
2021/01/07 04:02:54;;;;;;;32.13;14.27;;;-0.70;99.90;;;;;;5033364;28;20488;-63
2021/01/07 04:05:19;;;;;;;24.60;11.87;;;-0.70;99.90;;;;;;5026428;28;20193;-64
2021/01/07 04:07:45;;;;;;;27.00;13.07;;;-0.60;99.90;;;;;;5030036;28;20187;-63
2021/01/07 04:10:10;;;;;;;36.67;13.70;;;-0.70;99.90;;;;;;5031689;28;20192;-63
2021/01/07 04:12:44;;;;;;;32.53;13.37;;;-0.60;99.90;;;;;;5032077;28;20613;-63
2021/01/07 04:15:13;;;;;;;31.67;13.03;;;-0.70;99.90;;;;;;5021666;28;20185;-63
2021/01/07 04:17:39;;;;;;;32.70;14.00;;;-0.70;99.90;;;;;;5021314;28;20427;-62
2021/01/07 04:20:16;;;;;;;35.07;13.63;;;-0.70;99.90;;;;;;5030588;28;20808;-62
2021/01/07 04:22:42;;;;;;;34.07;13.37;;;-0.70;99.90;;;;;;5015061;28;20427;-63
2021/01/07 04:25:09;;;;;;;28.80;13.60;;;-0.70;99.90;;;;;;5013044;28;20974;-63
2021/01/07 04:27:37;;;;;;;35.67;13.67;;;-0.70;99.90;;;;;;5025915;28;20543;-63
2021/01/07 04:30:04;;;;;;;40.93;14.00;;;-0.60;99.90;;;;;;5032622;28;20514;-63
2021/01/07 04:32:30;;;;;;;30.17;13.83;;;-0.70;99.90;;;;;;5019763;28;20433;-64
2021/01/07 04:35:01;;;;;;;32.77;14.17;;;-0.60;99.90;;;;;;5020650;28;20439;-63
2021/01/07 04:37:38;;;;;;;32.03;12.57;;;-0.70;99.90;;;;;;5032745;28;20149;-63
2021/01/07 04:40:08;;;;;;;32.80;13.33;;;-0.70;99.90;;;;;;5032806;28;20540;-62
2021/01/07 04:42:37;;;;;;;30.60;14.07;;;-0.70;99.90;;;;;;5015321;28;20529;-65
2021/01/07 04:45:04;;;;;;;34.00;14.10;;;-0.70;99.90;;;;;;5026203;28;20475;-63
2021/01/07 04:47:31;;;;;;;28.20;12.13;;;-0.70;99.90;;;;;;5030951;28;20485;-61
2021/01/07 04:50:00;;;;;;;32.23;13.47;;;-0.80;99.90;;;;;;5023243;28;20437;-63
2021/01/07 04:52:26;;;;;;;28.73;13.27;;;-0.80;99.90;;;;;;5018354;28;20448;-62
2021/01/07 04:54:53;;;;;;;33.70;14.77;;;-0.80;99.90;;;;;;5030287;28;20463;-63
2021/01/07 04:57:22;;;;;;;32.77;14.23;;;-0.80;99.90;;;;;;5031364;28;20430;-62
2021/01/07 04:59:48;;;;;;;31.97;14.43;;;-0.80;99.90;;;;;;5029013;28;20490;-62
2021/01/07 05:02:16;;;;;;;34.90;14.40;;;-0.80;99.90;;;;;;5020857;28;20436;-63
2021/01/07 05:04:51;;;;;;;34.87;14.97;;;-0.80;99.90;;;;;;5027727;28;20542;-62
2021/01/07 05:07:18;;;;;;;31.30;13.80;;;-0.70;99.90;;;;;;5027276;28;20544;-63
2021/01/07 05:09:45;;;;;;;33.03;14.60;;;-0.70;99.90;;;;;;5032108;28;20930;-63
2021/01/07 05:12:12;;;;;;;31.77;14.40;;;-0.70;99.90;;;;;;5033197;28;20787;-64
2021/01/07 05:14:45;;;;;;;44.07;15.77;;;-0.80;99.90;;;;;;5035095;28;20462;-63
2021/01/07 05:17:16;;;;;;;38.30;15.83;;;-0.80;99.90;;;;;;5031427;28;20434;-63
2021/01/07 05:19:45;;;;;;;29.63;13.03;;;-0.80;99.90;;;;;;5021806;28;21039;-62
2021/01/07 05:22:14;;;;;;;36.23;15.10;;;-0.80;99.90;;;;;;5028898;28;20510;-63
2021/01/07 05:24:40;;;;;;;31.33;13.60;;;-0.80;99.90;;;;;;5025879;28;20461;-63
2021/01/07 05:27:10;;;;;;;37.63;15.13;;;-0.80;99.90;;;;;;5032751;28;20798;-65
2021/01/07 05:29:40;;;;;;;35.97;15.30;;;-0.80;99.90;;;;;;5041388;28;20800;-63
2021/01/07 05:32:11;;;;;;;35.00;15.70;;;-0.90;99.90;;;;;;5032527;28;20437;-63
2021/01/07 05:34:50;;;;;;;32.77;13.73;;;-0.80;99.90;;;;;;5030885;28;20431;-64
2021/01/07 05:37:20;;;;;;;35.60;15.57;;;-0.80;99.90;;;;;;5030505;28;20490;-63
2021/01/07 05:39:55;;;;;;;31.27;12.97;;;-0.80;99.90;;;;;;5029610;28;20463;-62
2021/01/07 05:42:21;;;;;;;31.07;14.27;;;-0.70;99.90;;;;;;5027392;28;20435;-63
2021/01/07 05:44:48;;;;;;;32.17;13.63;;;-0.70;99.90;;;;;;5031883;28;20431;-63
2021/01/07 05:47:30;;;;;;;32.40;14.20;;;-0.70;99.90;;;;;;5024788;28;20290;-63
2021/01/07 05:49:57;;;;;;;29.10;13.43;;;-0.70;99.90;;;;;;5027253;28;20429;-63
2021/01/07 05:52:30;;;;;;;30.03;12.90;;;-0.70;99.90;;;;;;5024291;28;20436;-62
2021/01/07 05:54:57;;;;;;;28.53;13.30;;;-0.70;99.90;;;;;;5012608;28;20429;-62
2021/01/07 05:57:25;;;;;;;30.93;13.63;;;-0.70;99.90;;;;;;5028687;28;20449;-62
2021/01/07 05:59:53;;;;;;;33.63;12.97;;;-0.70;99.90;;;;;;5030640;28;20459;-65
2021/01/07 06:02:20;;;;;;;31.00;12.43;;;-0.70;99.90;;;;;;5030593;28;20481;-62
2021/01/07 06:04:49;;;;;;;30.30;14.57;;;-0.70;99.90;;;;;;5028528;28;21061;-65
2021/01/07 06:07:16;;;;;;;34.53;13.40;;;-0.80;99.90;;;;;;5017985;28;20463;-62
2021/01/07 06:09:49;;;;;;;31.13;13.37;;;-0.80;99.90;;;;;;5016706;28;20428;-62
2021/01/07 06:12:16;;;;;;;36.83;14.27;;;-0.70;99.90;;;;;;5010635;28;20423;-63
2021/01/07 06:14:44;;;;;;;35.57;13.37;;;-0.80;99.90;;;;;;5025759;28;20950;-62
2021/01/07 06:17:10;;;;;;;35.40;14.67;;;-0.80;99.90;;;;;;5030712;28;20526;-62
2021/01/07 06:19:38;;;;;;;33.17;13.30;;;-0.80;99.90;;;;;;5032667;28;20502;-62
2021/01/07 06:22:20;;;;;;;39.30;14.90;;;-0.80;99.90;;;;;;5033488;28;20426;-61
2021/01/07 06:24:49;;;;;;;34.93;14.07;;;-0.80;99.90;;;;;;5023348;28;20433;-62
2021/01/07 06:27:18;;;;;;;29.50;13.53;;;-0.80;99.90;;;;;;5020548;28;20455;-62
2021/01/07 06:29:47;;;;;;;31.13;12.33;;;-0.80;99.90;;;;;;5033417;28;20431;-62
2021/01/07 06:32:13;;;;;;;31.73;14.30;;;-0.80;99.90;;;;;;5032512;28;20944;-61
2021/01/07 06:34:41;;;;;;;33.57;14.03;;;-0.80;99.90;;;;;;5030836;28;20805;-62
2021/01/07 06:37:06;;;;;;;29.60;12.23;;;-0.80;99.90;;;;;;5029836;28;20451;-65
2021/01/07 06:39:43;;;;;;;30.03;12.73;;;-0.80;99.90;;;;;;5029767;28;20533;-62
2021/01/07 06:42:20;;;;;;;30.33;12.03;;;-0.80;99.90;;;;;;5034665;28;20208;-62
2021/01/07 06:44:47;;;;;;;29.77;11.43;;;-0.80;99.90;;;;;;5029557;28;20440;-62
2021/01/07 06:47:20;;;;;;;28.73;12.07;;;-0.90;99.90;;;;;;5021971;28;20450;-63
2021/01/07 06:49:51;;;;;;;30.80;12.80;;;-0.90;99.90;;;;;;5033474;28;20946;-61
2021/01/07 06:52:23;;;;;;;36.80;15.10;;;-0.80;99.90;;;;;;5031674;28;20447;-61
2021/01/07 06:54:52;;;;;;;34.07;13.67;;;-0.80;99.90;;;;;;5021503;28;20438;-65
2021/01/07 06:57:21;;;;;;;30.90;13.23;;;-0.80;99.90;;;;;;5029273;28;20867;-62
2021/01/07 06:59:57;;;;;;;29.77;13.40;;;-0.80;99.90;;;;;;5033723;28;20477;-62
2021/01/07 07:02:29;;;;;;;34.53;13.53;;;-0.80;99.90;;;;;;5028111;28;20461;-62
2021/01/07 07:05:03;;;;;;;38.30;14.77;;;-0.80;99.90;;;;;;5025772;28;20519;-63
2021/01/07 07:07:38;;;;;;;32.03;13.33;;;-0.80;99.90;;;;;;5025107;28;20453;-63
2021/01/07 07:10:22;;;;;;;27.80;12.40;;;-0.80;99.90;;;;;;5033857;28;20467;-63
2021/01/07 07:12:49;;;;;;;30.07;12.87;;;-0.90;99.90;;;;;;5019790;28;20422;-65
2021/01/07 07:15:27;;;;;;;31.10;13.57;;;-0.90;99.90;;;;;;5024546;28;20930;-63
2021/01/07 07:17:55;;;;;;;36.80;14.20;;;-0.90;99.90;;;;;;5031623;28;20816;-62
2021/01/07 07:20:24;;;;;;;31.00;13.50;;;-0.90;99.90;;;;;;5031777;28;20479;-64
2021/01/07 07:22:54;;;;;;;28.90;13.17;;;-0.90;99.90;;;;;;5033013;28;20436;-62
2021/01/07 07:25:25;;;;;;;29.30;12.57;;;-0.80;99.90;;;;;;5028928;28;20872;-63
2021/01/07 07:27:56;;;;;;;32.10;13.90;;;-0.80;99.90;;;;;;5031602;28;20455;-62
2021/01/07 07:30:30;;;;;;;32.50;13.30;;;-0.80;99.90;;;;;;5030256;28;20439;-62
2021/01/07 07:33:00;;;;;;;31.70;13.73;;;-0.80;99.90;;;;;;5030849;28;20433;-63
2021/01/07 07:35:45;;;;;;;35.73;12.93;;;-0.70;99.90;;;;;;5032729;28;20441;-63
2021/01/07 07:38:11;;;;;;;30.63;14.30;;;-0.70;99.90;;;;;;5025396;28;20863;-62
2021/01/07 07:40:40;;;;;;;29.30;13.50;;;-0.70;99.90;;;;;;5032421;28;20451;-63
2021/01/07 07:43:07;;;;;;;31.70;12.60;;;-0.70;99.90;;;;;;5028995;28;20176;-63
2021/01/07 07:45:34;;;;;;;36.57;14.33;;;-0.70;99.90;;;;;;5029568;28;20754;-63
2021/01/07 07:48:00;;;;;;;34.13;14.00;;;-0.70;99.90;;;;;;5028251;28;20434;-63
2021/01/07 07:50:31;;;;;;;38.87;14.57;;;-0.70;99.90;;;;;;5025292;28;20434;-62
2021/01/07 07:53:13;;;;;;;30.70;13.00;;;-0.70;99.90;;;;;;5027336;28;20962;-64
2021/01/07 07:55:40;;;;;;;31.70;13.83;;;-0.70;99.90;;;;;;5023331;28;20497;-62
2021/01/07 07:58:14;;;;;;;32.30;12.80;;;-0.60;99.90;;;;;;5027627;28;20443;-62
2021/01/07 08:00:52;;;;;;;34.00;14.00;;;-0.70;99.90;;;;;;5039833;28;20483;-62
2021/01/07 08:03:28;;;;;;;30.30;12.90;;;-0.70;99.90;;;;;;5030341;28;20951;-62
2021/01/07 08:05:58;;;;;;;30.07;13.17;;;-0.70;99.90;;;;;;5025889;28;20473;-61
2021/01/07 08:08:31;;;;;;;25.77;12.47;;;-0.70;99.90;;;;;;5023231;28;20948;-60
2021/01/07 08:10:59;;;;;;;32.57;13.10;;;-0.70;99.90;;;;;;5024190;28;20926;-62
2021/01/07 08:13:28;;;;;;;33.83;13.70;;;-0.70;99.90;;;;;;5019457;28;20434;-62
2021/01/07 08:15:59;;;;;;;31.93;13.60;;;-0.60;99.90;;;;;;5019122;28;20546;-63
2021/01/07 08:18:32;;;;;;;32.13;13.23;;;-0.60;99.90;;;;;;5023040;28;20978;-62
2021/01/07 08:21:08;;;;;;;30.87;12.90;;;-0.50;99.90;;;;;;5026068;28;20530;-62
2021/01/07 08:23:36;;;;;;;27.73;13.00;;;-0.50;99.90;;;;;;5024656;28;20427;-62
2021/01/07 08:26:03;;;;;;;32.43;12.70;;;-0.50;99.90;;;;;;5023176;28;20478;-63
2021/01/07 08:28:43;;;;;;;27.90;11.37;;;-0.50;99.90;;;;;;5028736;28;20431;-62
2021/01/07 08:31:19;;;;;;;31.77;12.40;;;-0.40;99.90;;;;;;5024109;28;20444;-64
2021/01/07 08:33:46;;;;;;;24.97;12.10;;;-0.40;99.90;;;;;;5026491;28;20942;-63
2021/01/07 08:36:18;;;;;;;31.33;12.93;;;-0.40;99.90;;;;;;5025730;28;21123;-62
2021/01/07 08:38:52;;;;;;;31.50;13.90;;;-0.40;99.90;;;;;;5024476;28;20437;-63
2021/01/07 08:41:20;;;;;;;35.43;14.60;;;-0.30;99.90;;;;;;5030674;28;20544;-64
2021/01/07 08:43:47;;;;;;;33.73;14.20;;;-0.30;99.90;;;;;;5023923;28;20513;-63
2021/01/07 08:46:17;;;;;;;33.00;13.53;;;-0.20;99.90;;;;;;5020713;28;21284;-63
2021/01/07 08:48:44;;;;;;;35.17;14.80;;;-0.20;99.90;;;;;;5027937;28;20527;-64
2021/01/07 08:51:20;;;;;;;28.93;13.90;;;-0.20;99.90;;;;;;5030986;28;20476;-63
2021/01/07 08:53:51;;;;;;;35.47;15.17;;;-0.10;99.90;;;;;;5027862;28;20443;-63
2021/01/07 08:56:37;;;;;;;31.07;13.40;;;-0.10;99.90;;;;;;5026245;28;20444;-63
2021/01/07 08:59:25;;;;;;;34.07;13.37;;;-0.10;99.90;;;;;;5023024;28;20443;-63
2021/01/07 09:02:00;;;;;;;30.97;12.70;;;0.00;99.90;;;;;;5013522;28;20431;-63
2021/01/07 09:04:33;;;;;;;32.00;14.00;;;0.00;99.90;;;;;;5020475;28;20476;-63
2021/01/07 09:07:02;;;;;;;40.60;14.60;;;0.10;99.90;;;;;;5023647;28;20459;-63
2021/01/07 09:09:46;;;;;;;40.47;13.77;;;0.10;99.90;;;;;;5015749;28;20432;-57
2021/01/07 09:12:31;;;;;;;37.97;15.50;;;0.10;99.90;;;;;;5027278;28;20424;-62
2021/01/07 09:15:07;;;;;;;39.10;14.47;;;0.10;99.90;;;;;;5019475;28;20438;-63
2021/01/07 09:17:43;;;;;;;33.30;14.17;;;0.10;99.90;;;;;;5025213;28;20436;-63
2021/01/07 09:20:17;;;;;;;33.37;14.07;;;0.20;99.90;;;;;;5026524;28;20502;-63
2021/01/07 09:22:43;;;;;;;34.47;14.60;;;0.20;99.90;;;;;;5029682;28;20478;-64
2021/01/07 09:25:18;;;;;;;37.97;14.83;;;0.30;99.90;;;;;;5025542;28;20516;-64
2021/01/07 09:27:50;;;;;;;31.57;13.97;;;0.30;99.90;;;;;;5022827;28;20423;-63
2021/01/07 09:30:16;;;;;;;44.03;15.67;;;0.30;99.90;;;;;;5024833;28;20485;-63
2021/01/07 09:32:43;;;;;;;37.63;14.63;;;0.30;99.90;;;;;;5018823;28;20445;-64
2021/01/07 09:35:09;;;;;;;36.70;14.10;;;0.40;99.90;;;;;;5016943;28;20447;-63
2021/01/07 09:37:39;;;;;;;35.57;14.83;;;0.40;99.90;;;;;;5020195;28;20531;-63
2021/01/07 09:40:06;;;;;;;39.50;14.70;;;0.40;99.90;;;;;;5018220;28;20456;-64
2021/01/07 09:42:35;;;;;;;31.03;13.07;;;0.50;99.90;;;;;;5019212;28;20463;-63
2021/01/07 09:45:02;;;;;;;33.53;13.80;;;0.50;99.90;;;;;;5021474;28;20428;-62
2021/01/07 09:47:29;;;;;;;35.57;14.40;;;0.50;99.90;;;;;;5012130;28;20526;-64
2021/01/07 09:49:56;;;;;;;48.40;17.60;;;0.60;99.90;;;;;;5013874;28;20449;-63
2021/01/07 09:52:23;;;;;;;56.00;18.30;;;0.60;99.90;;;;;;5018262;28;20431;-64
2021/01/07 09:54:48;;;;;;;50.03;18.50;;;0.70;99.90;;;;;;5019817;28;20434;-64
2021/01/07 09:57:14;;;;;;;45.47;17.47;;;0.70;99.90;;;;;;5022740;28;20511;-64
2021/01/07 09:59:40;;;;;;;29.20;13.90;;;0.70;99.90;;;;;;5018688;28;20181;-60
2021/01/07 10:02:09;;;;;;;35.10;15.57;;;0.80;99.90;;;;;;5019728;28;20184;-63
2021/01/07 10:04:41;;;;;;;35.10;14.17;;;0.70;99.80;;;;;;5022635;28;20432;-64
2021/01/07 10:07:07;;;;;;;34.40;13.63;;;0.80;99.90;;;;;;5024319;28;20486;-64
2021/01/07 10:09:33;;;;;;;33.10;14.30;;;0.80;99.90;;;;;;5022194;28;20424;-64
2021/01/07 10:12:02;;;;;;;36.63;14.03;;;0.90;99.90;;;;;;5021886;28;20435;-63
2021/01/07 10:14:32;;;;;;;35.47;13.80;;;1.00;99.90;;;;;;5022456;28;20477;-63
2021/01/07 10:17:03;;;;;;;35.90;13.53;;;1.10;99.90;;;;;;5018084;28;20484;-63
2021/01/07 10:19:37;;;;;;;29.30;13.20;;;1.10;99.50;;;;;;5022893;28;20428;-63
2021/01/07 10:22:12;;;;;;;31.20;12.53;;;1.10;98.80;;;;;;5017867;28;20957;-64
2021/01/07 10:24:46;;;;;;;30.80;12.30;;;1.10;99.00;;;;;;5020725;28;21256;-63
2021/01/07 10:27:17;;;;;;;33.97;13.13;;;1.10;98.90;;;;;;5018735;28;20447;-64
2021/01/07 10:30:01;;;;;;;37.50;14.40;;;1.20;99.00;;;;;;5024677;28;20509;-64
2021/01/07 10:32:33;;;;;;;36.90;14.23;;;1.20;98.80;;;;;;5024303;28;20523;-64
2021/01/07 10:35:00;;;;;;;34.57;13.80;;;1.20;98.80;;;;;;5017924;28;20942;-62
2021/01/07 10:37:26;;;;;;;36.13;13.97;;;1.30;98.30;;;;;;5018578;28;20459;-62
2021/01/07 10:39:53;;;;;;;25.00;10.87;;;1.20;98.20;;;;;;5016126;28;20471;-64
2021/01/07 10:42:20;;;;;;;26.23;11.87;;;1.20;98.40;;;;;;5029394;28;20434;-64
2021/01/07 10:44:47;;;;;;;32.43;12.97;;;1.10;98.30;;;;;;5021822;28;21064;-65
2021/01/07 10:47:15;;;;;;;32.27;13.90;;;1.10;98.60;;;;;;5019327;28;20456;-64
2021/01/07 10:49:43;;;;;;;31.67;12.63;;;1.10;98.60;;;;;;5026335;28;20459;-62
2021/01/07 10:52:12;;;;;;;30.60;12.47;;;1.10;98.50;;;;;;5019449;28;20938;-62
2021/01/07 10:54:50;;;;;;;24.30;11.97;;;1.00;98.50;;;;;;5020521;28;20502;-63
2021/01/07 10:57:24;;;;;;;29.47;12.80;;;0.90;98.30;;;;;;5024490;28;20448;-63
2021/01/07 11:00:02;;;;;;;30.50;12.20;;;0.80;98.60;;;;;;5017129;28;20964;-63
2021/01/07 11:02:58;;;;;;;26.83;11.93;;;0.80;98.70;;;;;;5020380;28;20428;-62
2021/01/07 11:05:33;;;;;;;24.40;10.70;;;0.80;99.00;;;;;;5015654;28;20426;-63
2021/01/07 11:08:17;;;;;;;25.03;10.87;;;0.80;99.00;;;;;;5022363;28;20524;-63
2021/01/07 11:10:49;;;;;;;24.57;11.20;;;0.90;99.00;;;;;;5020042;28;20527;-58
2021/01/07 11:13:17;;;;;;;25.57;11.30;;;1.00;98.80;;;;;;5021956;28;20438;-62
2021/01/07 11:15:44;;;;;;;23.53;11.00;;;1.00;98.30;;;;;;5021924;28;20459;-63
2021/01/07 11:18:19;;;;;;;23.10;10.67;;;1.10;98.00;;;;;;5022328;28;20518;-63
2021/01/07 11:20:51;;;;;;;23.67;10.73;;;1.10;98.40;;;;;;5019943;28;20776;-63
2021/01/07 11:23:18;;;;;;;24.27;10.63;;;1.30;98.50;;;;;;5021823;28;20868;-62
2021/01/07 11:25:48;;;;;;;25.50;11.60;;;1.50;98.30;;;;;;5020718;28;20549;-63
2021/01/07 11:28:17;;;;;;;23.17;11.37;;;1.60;97.70;;;;;;5017360;28;20434;-63
2021/01/07 11:30:45;;;;;;;24.60;11.27;;;1.70;97.40;;;;;;5020237;28;20448;-66
2021/01/07 11:33:14;;;;;;;29.30;12.57;;;1.70;96.90;;;;;;5024324;28;20448;-64
2021/01/07 11:35:46;;;;;;;25.40;12.27;;;1.70;97.00;;;;;;5019706;28;20459;-63
2021/01/07 11:38:24;;;;;;;23.90;10.70;;;1.70;96.90;;;;;;5022638;28;20450;-64
2021/01/07 11:41:02;;;;;;;22.67;10.53;;;1.70;96.40;;;;;;5015028;28;20539;-63
2021/01/07 11:44:04;;;;;;;24.00;10.47;;;1.80;96.70;;;;;;5015241;28;20456;-63
2021/01/07 11:46:33;;;;;;;23.23;10.83;;;1.80;96.60;;;;;;5019819;28;20439;-65
2021/01/07 11:49:03;;;;;;;23.93;10.93;;;1.80;96.60;;;;;;5020786;28;20731;-65
2021/01/07 11:51:29;;;;;;;23.47;10.97;;;1.90;96.60;;;;;;5022685;28;20444;-65
2021/01/07 11:54:02;;;;;;;21.80;10.33;;;1.90;96.10;;;;;;5020669;28;20445;-66
2021/01/07 11:56:29;;;;;;;23.27;10.13;;;1.90;96.20;;;;;;5021699;28;20511;-66
2021/01/07 11:59:00;;;;;;;29.53;10.87;;;1.90;96.10;;;;;;5021360;28;20519;-64
2021/01/07 12:01:30;;;;;;;25.60;10.03;;;1.90;96.50;;;;;;5021501;28;20457;-67
2021/01/07 12:03:57;;;;;;;20.17;9.60;;;1.80;96.60;;;;;;5018594;28;20511;-64
2021/01/07 12:06:31;;;;;;;23.73;9.87;;;1.90;96.40;;;;;;5008436;28;20461;-65
2021/01/07 12:09:08;;;;;;;25.63;10.57;;;1.90;96.50;;;;;;5014377;28;20470;-63
2021/01/07 12:11:39;;;;;;;18.77;9.70;;;1.90;96.20;;;;;;5017016;28;20432;-64
2021/01/07 12:14:15;;;;;;;18.20;9.40;;;1.80;96.60;;;;;;5018418;28;20441;-65
2021/01/07 12:16:53;;;;;;;20.83;9.70;;;1.80;96.60;;;;;;5017027;28;20456;-63
2021/01/07 12:19:22;;;;;;;22.47;10.13;;;1.80;96.80;;;;;;5012828;28;20509;-64
2021/01/07 12:21:49;;;;;;;20.73;9.93;;;1.90;96.70;;;;;;5015477;28;20467;-64
2021/01/07 12:24:22;;;;;;;17.43;9.07;;;1.90;96.60;;;;;;5021865;28;21118;-63
2021/01/07 12:26:51;;;;;;;21.17;10.50;;;1.90;96.50;;;;;;5019342;28;21130;-64
2021/01/07 12:29:21;;;;;;;22.60;10.20;;;1.80;96.10;;;;;;5022150;28;20516;-64
2021/01/07 12:31:57;;;;;;;21.73;10.77;;;1.80;96.50;;;;;;5015204;28;20576;-63
2021/01/07 12:34:43;;;;;;;26.60;10.20;;;1.80;96.50;;;;;;5023325;28;20439;-64
2021/01/07 12:37:10;;;;;;;21.93;9.43;;;1.80;96.90;;;;;;5016679;28;20465;-64
2021/01/07 12:39:50;;;;;;;27.20;11.23;;;1.80;96.90;;;;;;5023814;28;20953;-63
2021/01/07 12:42:22;;;;;;;17.70;8.77;;;1.80;97.00;;;;;;5020279;28;20965;-63
2021/01/07 12:44:49;;;;;;;24.33;10.23;;;1.80;97.20;;;;;;5015977;28;20428;-63